Time;durP1;ratioP1;P1;durP2;ratioP2;P2;SDS_P1;SDS_P2;PMS_P1;PMS_P2;Temp;Humidity;BMP_temperature;BMP_pressure;BME280_temperature;BME280_humidity;BME280_pressure;Samples;Min_cycle;Max_cycle;Signal;HPM_P1;HPM_P2
2023/11/21 00:45:03;;;;;;;14.50;2.53;;;6.90;99.90;;;;;;5066724;28;20141;-63
2023/11/21 00:47:29;;;;;;;4.40;1.58;;;6.90;99.90;;;;;;5063265;28;20051;-63
2023/11/21 00:49:54;;;;;;;11.02;2.35;;;6.80;99.90;;;;;;5068516;28;20040;-61
2023/11/21 00:52:20;;;;;;;7.20;1.88;;;6.90;99.90;;;;;;5065897;28;20037;-60
2023/11/21 00:54:46;;;;;;;;;;;6.80;99.90;;;;;;5066891;28;20040;-62
2023/11/21 00:57:11;;;;;;;6.72;1.98;;;6.80;99.90;;;;;;5066926;28;19924;-62
2023/11/21 00:59:37;;;;;;;7.03;1.90;;;6.80;99.90;;;;;;5069396;28;20048;-62
2023/11/21 01:02:04;;;;;;;10.10;1.67;;;6.80;99.90;;;;;;5055859;28;20052;-62
2023/11/21 01:04:31;;;;;;;13.38;2.08;;;6.80;99.90;;;;;;5040718;28;20194;-63
2023/11/21 01:06:57;;;;;;;5.63;1.60;;;6.80;99.90;;;;;;5043184;28;20044;-63
2023/11/21 01:09:23;;;;;;;7.90;2.65;;;6.80;99.90;;;;;;5045284;28;20437;-63
2023/11/21 01:11:49;;;;;;;9.25;2.13;;;6.80;99.90;;;;;;5042683;28;21276;-63
2023/11/21 01:14:14;;;;;;;5.88;1.77;;;6.70;99.90;;;;;;5042658;28;20037;-61
2023/11/21 01:16:40;;;;;;;12.10;2.35;;;6.70;99.90;;;;;;5043636;28;20118;-64
2023/11/21 01:19:06;;;;;;;5.38;1.90;;;6.70;99.90;;;;;;5042419;28;20039;-61
2023/11/21 01:21:32;;;;;;;13.60;2.50;;;6.60;99.90;;;;;;5045056;28;20044;-64
2023/11/21 01:23:59;;;;;;;8.18;2.72;;;6.60;99.90;;;;;;5046043;28;20044;-62
2023/11/21 01:26:24;;;;;;;18.92;2.25;;;6.50;99.90;;;;;;5045273;28;20053;-61
2023/11/21 01:28:50;;;;;;;;;;;6.50;99.90;;;;;;5041402;28;20118;-62
2023/11/21 01:31:16;;;;;;;9.30;1.88;;;6.40;99.90;;;;;;5043687;28;19924;-63
2023/11/21 01:33:41;;;;;;;;;;;6.40;99.90;;;;;;5044316;28;20631;-62
2023/11/21 01:36:07;;;;;;;8.10;1.80;;;6.40;99.90;;;;;;5044232;28;19917;-63
2023/11/21 01:38:33;;;;;;;15.95;2.15;;;6.40;99.90;;;;;;5042006;28;20370;-62
2023/11/21 01:41:00;;;;;;;8.32;1.88;;;6.30;99.90;;;;;;5044662;28;20515;-63
2023/11/21 01:43:27;;;;;;;6.15;2.10;;;6.30;99.90;;;;;;5040507;28;20045;-61
2023/11/21 01:45:56;;;;;;;9.00;1.65;;;6.30;99.90;;;;;;5045904;28;20127;-62
2023/11/21 01:48:23;;;;;;;9.60;2.10;;;6.30;99.90;;;;;;5041320;28;20048;-62
2023/11/21 01:50:49;;;;;;;6.65;2.20;;;6.30;99.90;;;;;;5045393;28;20048;-62
2023/11/21 01:53:15;;;;;;;5.45;2.40;;;6.30;99.90;;;;;;5041092;28;20049;-62
2023/11/21 01:55:42;;;;;;;9.27;2.40;;;6.30;99.90;;;;;;5047050;28;20503;-63
2023/11/21 01:58:08;;;;;;;12.35;2.60;;;6.30;99.90;;;;;;5045129;28;20041;-63
2023/11/21 02:00:34;;;;;;;6.22;2.10;;;6.30;99.90;;;;;;5036795;28;20055;-63
2023/11/21 02:03:00;;;;;;;8.02;2.65;;;6.30;99.90;;;;;;5063982;28;20041;-63
2023/11/21 02:05:26;;;;;;;19.67;3.42;;;6.30;99.90;;;;;;5065269;28;20033;-62
2023/11/21 02:07:52;;;;;;;;;;;6.20;99.90;;;;;;5063059;28;20094;-64
2023/11/21 02:10:22;;;;;;;11.73;2.45;;;6.20;99.90;;;;;;5061130;28;20119;-62
2023/11/21 02:12:52;;;;;;;18.30;2.88;;;6.20;99.90;;;;;;5063881;28;20036;-63
2023/11/21 03:46:10;;;;;;;4.38;2.03;;;6.40;99.90;;;;;;5058131;28;20037;-63
2023/11/21 03:48:35;;;;;;;8.25;2.35;;;6.40;99.90;;;;;;5061181;28;20703;-64
2023/11/21 03:51:01;;;;;;;10.18;2.50;;;6.40;99.90;;;;;;5066920;28;20119;-63
2023/11/21 03:53:26;;;;;;;8.98;2.25;;;6.50;99.90;;;;;;5066443;28;20048;-63
2023/11/21 03:55:52;;;;;;;;;;;6.50;99.90;;;;;;5066978;28;20044;-63
2023/11/21 03:58:18;;;;;;;6.03;2.00;;;6.50;99.90;;;;;;5065264;28;19931;-63
2023/11/21 04:00:43;;;;;;;8.52;2.38;;;6.50;99.90;;;;;;5066613;28;20048;-63
2023/11/21 04:03:09;;;;;;;7.25;2.03;;;6.50;99.90;;;;;;5069101;28;20052;-63
2023/11/21 04:05:34;;;;;;;9.27;2.30;;;6.50;99.90;;;;;;5067903;28;20048;-63
2023/11/21 04:08:00;;;;;;;8.60;2.53;;;6.50;99.90;;;;;;5075169;28;20047;-64
2023/11/21 04:10:26;;;;;;;8.40;3.30;;;6.50;99.90;;;;;;5067497;28;20044;-64
2023/11/21 04:12:51;;;;;;;6.63;2.35;;;6.50;99.90;;;;;;5067450;28;20114;-63
2023/11/21 04:15:17;;;;;;;5.82;2.20;;;6.60;99.90;;;;;;5071373;28;20047;-63
2023/11/21 04:17:45;;;;;;;8.38;2.70;;;6.60;99.90;;;;;;5060467;28;20040;-64
2023/11/21 04:20:11;;;;;;;3.97;2.33;;;6.60;99.90;;;;;;5064848;28;20040;-64
2023/11/21 04:22:40;;;;;;;9.63;2.42;;;6.50;99.90;;;;;;5067499;28;20668;-64
2023/11/21 04:25:09;;;;;;;10.85;2.40;;;6.60;99.90;;;;;;5065821;28;20166;-64
2023/11/21 04:27:35;;;;;;;9.02;3.08;;;6.60;99.90;;;;;;5067806;28;20127;-63
2023/11/21 04:30:00;;;;;;;6.65;2.53;;;6.50;99.90;;;;;;5069167;28;20107;-63
2023/11/21 04:32:26;;;;;;;6.75;1.85;;;6.50;99.90;;;;;;5062927;28;20036;-64
2023/11/21 04:34:51;;;;;;;6.15;2.05;;;6.60;99.90;;;;;;5065010;28;20465;-64
2023/11/21 04:37:17;;;;;;;4.63;2.15;;;6.60;99.90;;;;;;5062630;28;20632;-63
2023/11/21 04:39:43;;;;;;;7.47;2.20;;;6.60;99.90;;;;;;5067901;28;20491;-62
2023/11/21 04:42:08;;;;;;;;;;;6.60;99.90;;;;;;5063155;28;20029;-63
2023/11/21 04:44:34;;;;;;;7.75;2.20;;;6.60;99.90;;;;;;5065198;28;20021;-64
2023/11/21 04:46:59;;;;;;;;;;;6.60;99.90;;;;;;5068261;28;20060;-63
2023/11/21 04:49:25;;;;;;;6.78;3.00;;;6.50;99.90;;;;;;5069859;28;20375;-64
2023/11/21 04:51:50;;;;;;;6.78;3.83;;;6.60;99.90;;;;;;5061806;28;20170;-64
2023/11/21 04:54:16;;;;;;;8.65;2.92;;;6.60;99.90;;;;;;5066704;28;20085;-63
2023/11/21 04:56:42;;;;;;;9.25;2.97;;;6.60;99.90;;;;;;5062523;28;20123;-63
2023/11/21 04:59:08;;;;;;;19.15;3.60;;;6.60;99.90;;;;;;5066215;28;20658;-63
2023/11/21 05:01:33;;;;;;;;;;;6.70;99.90;;;;;;5071571;28;20041;-63
2023/11/21 05:03:59;;;;;;;10.40;3.75;;;6.70;99.90;;;;;;5060850;28;19923;-63
2023/11/21 05:06:24;;;;;;;;;;;6.70;99.90;;;;;;5066351;28;20052;-63
2023/11/21 05:08:50;;;;;;;7.57;3.85;;;6.70;99.90;;;;;;5057607;28;19974;-63
2023/11/21 05:11:32;;;;;;;13.38;5.50;;;6.70;99.90;;;;;;5066358;28;20051;-64
2023/11/21 05:13:58;;;;;;;16.77;6.13;;;6.80;99.90;;;;;;5058516;28;20090;-63
2023/11/21 05:16:27;;;;;;;16.30;7.00;;;6.80;99.90;;;;;;5067126;28;20051;-64
2023/11/21 05:18:53;;;;;;;17.25;6.68;;;6.80;99.90;;;;;;5062995;28;20048;-64
2023/11/21 05:21:20;;;;;;;18.60;7.93;;;6.80;99.90;;;;;;5064787;28;20419;-64
2023/11/21 05:23:46;;;;;;;15.75;8.07;;;6.80;99.90;;;;;;5060672;28;20048;-63
2023/11/21 05:26:12;;;;;;;18.15;8.38;;;6.80;99.90;;;;;;5063244;28;20047;-64
2023/11/21 05:28:37;;;;;;;13.93;7.57;;;6.70;99.90;;;;;;5061620;28;20563;-63
2023/11/21 05:31:03;;;;;;;20.15;8.52;;;6.70;99.90;;;;;;5055447;28;20036;-64
2023/11/21 05:33:29;;;;;;;20.60;9.05;;;6.70;99.90;;;;;;5045206;28;20037;-63
2023/11/21 05:35:54;;;;;;;;;;;6.70;99.90;;;;;;5046413;28;20544;-63
2023/11/21 05:38:21;;;;;;;21.02;8.93;;;6.70;99.90;;;;;;5044881;28;19956;-62
2023/11/21 05:40:47;;;;;;;18.70;9.27;;;6.70;99.90;;;;;;5046425;28;20075;-62
2023/11/21 05:43:13;;;;;;;18.17;8.45;;;6.70;99.90;;;;;;5046589;28;20098;-62
2023/11/21 05:45:38;;;;;;;21.35;8.90;;;6.70;99.90;;;;;;5045486;28;20049;-63
2023/11/21 05:48:04;;;;;;;;;;;6.70;99.90;;;;;;5045271;28;20083;-62
2023/11/21 05:50:30;;;;;;;16.60;7.47;;;6.70;99.90;;;;;;5048091;28;19917;-63
2023/11/21 05:52:57;;;;;;;23.42;8.88;;;6.80;99.90;;;;;;5044573;28;20591;-63
2023/11/21 05:55:25;;;;;;;19.23;9.10;;;6.80;99.90;;;;;;5042658;28;20045;-61
2023/11/21 05:57:51;;;;;;;15.93;8.60;;;6.70;99.90;;;;;;5045838;28;20033;-63
2023/11/21 06:00:21;;;;;;;20.83;8.60;;;6.70;99.90;;;;;;5045799;28;20616;-63
2023/11/21 06:02:51;;;;;;;20.50;8.95;;;6.70;99.90;;;;;;5060810;28;20093;-60
2023/11/21 06:05:18;;;;;;;15.27;7.88;;;6.70;99.90;;;;;;5068993;28;20032;-63
2023/11/21 06:07:44;;;;;;;18.10;8.63;;;6.70;99.90;;;;;;5061222;28;20483;-64
2023/11/21 06:10:14;;;;;;;20.95;8.88;;;6.70;99.90;;;;;;5066716;28;20088;-63
2023/11/21 06:12:42;;;;;;;15.05;7.93;;;6.70;99.90;;;;;;5060490;28;20037;-64
2023/11/21 06:15:09;;;;;;;17.92;8.45;;;6.70;99.90;;;;;;5062054;28;20044;-62
2023/11/21 06:17:39;;;;;;;17.38;8.30;;;6.70;99.90;;;;;;5063822;28;20110;-63
2023/11/21 06:20:09;;;;;;;16.10;7.97;;;6.70;99.90;;;;;;5062706;28;20048;-63
2023/11/21 06:22:42;;;;;;;15.00;8.13;;;6.70;99.90;;;;;;5058374;28;20044;-62
2023/11/21 06:25:09;;;;;;;15.20;8.07;;;6.70;99.90;;;;;;5062750;28;20094;-63
2023/11/21 06:27:42;;;;;;;16.45;7.22;;;6.60;99.90;;;;;;5058820;28;20414;-63
2023/11/21 06:30:09;;;;;;;16.92;7.82;;;6.60;99.90;;;;;;5062497;28;20047;-63
2023/11/21 06:32:39;;;;;;;17.67;7.55;;;6.60;99.90;;;;;;5060979;28;20543;-63
2023/11/21 06:35:06;;;;;;;20.08;8.10;;;6.60;99.90;;;;;;5061315;28;20851;-62
2023/11/21 06:37:32;;;;;;;20.38;8.65;;;6.60;99.90;;;;;;5060888;28;20037;-63
2023/11/21 06:39:59;;;;;;;21.50;10.05;;;6.50;99.90;;;;;;5059805;28;20385;-62
2023/11/21 06:42:25;;;;;;;15.32;8.05;;;6.50;99.90;;;;;;5060340;28;20056;-63
2023/11/21 06:44:51;;;;;;;21.20;8.60;;;6.60;99.90;;;;;;5061795;28;20040;-63
2023/11/21 06:47:20;;;;;;;22.05;9.35;;;6.50;99.90;;;;;;5061901;28;20071;-61
2023/11/21 06:49:47;;;;;;;21.90;8.50;;;6.50;99.90;;;;;;5060831;28;20040;-62
2023/11/21 06:52:13;;;;;;;24.50;9.10;;;6.50;99.90;;;;;;5064855;28;20066;-62
2023/11/21 06:54:39;;;;;;;29.73;8.60;;;6.50;99.90;;;;;;5063778;28;20842;-63
2023/11/21 06:57:04;;;;;;;16.02;8.63;;;6.50;99.90;;;;;;5062735;28;20446;-63
2023/11/21 06:59:30;;;;;;;15.90;8.82;;;6.50;99.90;;;;;;5060270;28;20499;-62
2023/11/21 07:01:56;;;;;;;23.75;9.52;;;6.50;99.90;;;;;;5047276;28;20041;-63
2023/11/21 07:04:21;;;;;;;21.83;9.77;;;6.50;99.90;;;;;;5042450;28;20041;-63
2023/11/21 07:06:47;;;;;;;21.30;9.45;;;6.50;99.90;;;;;;5044540;28;20107;-62
2023/11/21 07:09:12;;;;;;;19.92;8.90;;;6.40;99.90;;;;;;5041098;28;20091;-62
2023/11/21 07:11:38;;;;;;;25.10;9.48;;;6.40;99.90;;;;;;5038823;28;20041;-63
2023/11/21 07:14:07;;;;;;;21.45;10.27;;;6.50;99.90;;;;;;5038288;28;20061;-62
2023/11/21 07:16:37;;;;;;;21.33;8.90;;;6.50;99.90;;;;;;5038840;28;20588;-63
2023/11/21 07:19:07;;;;;;;18.17;9.45;;;6.50;99.90;;;;;;5042095;28;20071;-61
2023/11/21 07:21:36;;;;;;;27.52;9.77;;;6.50;99.90;;;;;;5045905;28;20037;-62
2023/11/21 07:24:02;;;;;;;23.50;10.05;;;6.50;99.90;;;;;;5043388;28;20051;-62
2023/11/21 07:26:28;;;;;;;23.60;10.13;;;6.60;99.90;;;;;;5042080;28;20509;-63
2023/11/21 07:28:55;;;;;;;21.83;9.25;;;6.60;99.90;;;;;;5047930;28;20048;-62
2023/11/21 07:31:22;;;;;;;20.23;10.00;;;6.60;99.90;;;;;;5052560;28;20067;-62
2023/11/21 07:33:51;;;;;;;21.30;9.00;;;6.70;99.90;;;;;;5067145;28;20758;-62
2023/11/21 07:36:23;;;;;;;24.10;9.48;;;6.70;99.90;;;;;;5066158;28;20124;-63
2023/11/21 07:38:49;;;;;;;20.88;9.07;;;6.70;99.90;;;;;;5068128;28;20048;-63
2023/11/21 07:41:16;;;;;;;18.92;7.60;;;6.80;99.90;;;;;;5064812;28;20059;-62
2023/11/21 07:43:42;;;;;;;13.45;7.50;;;6.80;99.90;;;;;;5063494;28;20091;-62
2023/11/21 07:46:07;;;;;;;15.93;7.65;;;6.80;99.90;;;;;;5068299;28;20037;-61
2023/11/21 07:48:36;;;;;;;15.77;7.65;;;6.90;99.90;;;;;;5067487;28;20081;-62
2023/11/21 07:51:06;;;;;;;17.52;7.30;;;6.90;99.90;;;;;;5068176;28;20111;-62
2023/11/21 07:53:32;;;;;;;20.60;8.35;;;6.90;99.90;;;;;;5067454;28;20033;-62
2023/11/21 07:56:02;;;;;;;15.45;7.47;;;6.90;99.90;;;;;;5064014;28;20045;-62
2023/11/21 07:58:28;;;;;;;28.13;7.90;;;6.90;99.90;;;;;;5064479;28;20036;-64
2023/11/21 08:00:54;;;;;;;15.55;6.85;;;6.90;99.90;;;;;;5054173;28;20124;-64
2023/11/21 08:03:20;;;;;;;;;;;6.90;99.90;;;;;;5042324;28;20492;-62
2023/11/21 08:05:46;;;;;;;16.42;7.05;;;6.90;99.90;;;;;;5047409;28;20705;-62
2023/11/21 08:08:12;;;;;;;;;;;6.90;99.90;;;;;;5044537;28;20041;-62
2023/11/21 08:10:38;;;;;;;13.60;6.75;;;7.00;99.90;;;;;;5038285;28;20011;-64
2023/11/21 08:13:05;;;;;;;22.92;7.78;;;7.00;99.90;;;;;;5046665;28;20037;-62
2023/11/21 08:15:33;;;;;;;20.30;9.05;;;7.00;99.90;;;;;;5042246;28;20047;-63
2023/11/21 08:17:59;;;;;;;26.92;11.05;;;7.00;99.90;;;;;;5046447;28;20647;-64
2023/11/21 08:20:25;;;;;;;17.65;7.70;;;7.00;99.90;;;;;;5042088;28;20041;-64
2023/11/21 08:22:52;;;;;;;20.33;7.30;;;7.00;99.90;;;;;;5041589;28;20033;-63
2023/11/21 08:25:19;;;;;;;19.52;6.35;;;7.10;99.90;;;;;;5040524;28;20033;-63
2023/11/21 08:27:46;;;;;;;12.13;6.10;;;7.10;99.90;;;;;;5043725;28;20100;-64
2023/11/21 08:30:13;;;;;;;20.25;6.53;;;7.10;99.90;;;;;;5038443;28;20044;-63
2023/11/21 08:32:39;;;;;;;17.35;6.43;;;7.10;99.90;;;;;;5061821;28;20461;-64
2023/11/21 08:35:05;;;;;;;16.92;6.50;;;7.10;99.90;;;;;;5065959;28;20064;-64
2023/11/21 08:37:33;;;;;;;14.98;6.25;;;7.10;99.90;;;;;;5059709;28;20040;-63
2023/11/21 08:40:02;;;;;;;16.08;6.68;;;7.10;99.90;;;;;;5061014;28;20040;-64
2023/11/21 08:42:29;;;;;;;16.67;6.95;;;7.20;99.90;;;;;;5058587;28;20071;-63
2023/11/21 08:44:57;;;;;;;16.55;7.47;;;7.20;99.90;;;;;;5067872;28;20045;-63
2023/11/21 08:47:24;;;;;;;25.38;7.70;;;7.20;99.90;;;;;;5061778;28;20052;-63
2023/11/21 08:49:52;;;;;;;13.15;6.85;;;7.10;99.90;;;;;;5061509;28;20108;-63
2023/11/21 08:52:22;;;;;;;16.48;7.55;;;7.10;99.90;;;;;;5068461;28;20041;-64
2023/11/21 08:54:48;;;;;;;17.52;8.00;;;7.10;99.90;;;;;;5064868;28;20032;-64
2023/11/21 08:57:14;;;;;;;13.02;7.65;;;7.20;99.90;;;;;;5066484;28;20476;-64
2023/11/21 08:59:39;;;;;;;;;;;7.20;99.90;;;;;;5065226;28;20036;-63
2023/11/21 09:02:05;;;;;;;16.85;7.68;;;7.20;99.90;;;;;;5061115;28;19920;-63
2023/11/21 09:04:31;;;;;;;14.95;6.45;;;7.30;99.90;;;;;;5058642;28;20537;-64
2023/11/21 09:06:59;;;;;;;15.77;6.95;;;7.30;99.90;;;;;;5065046;28;20646;-64
2023/11/21 09:09:25;;;;;;;13.75;6.90;;;7.30;99.90;;;;;;5060232;28;20049;-63
2023/11/21 09:11:51;;;;;;;;;;;7.30;99.90;;;;;;5064255;28;20146;-62
2023/11/21 09:14:17;;;;;;;11.00;5.82;;;7.30;99.90;;;;;;5064303;28;20319;-63
2023/11/21 09:16:43;;;;;;;13.45;6.35;;;7.30;99.90;;;;;;5064681;28;20036;-64
2023/11/21 09:19:09;;;;;;;;;;;7.30;99.90;;;;;;5066640;28;20957;-63
2023/11/21 09:21:34;;;;;;;10.45;5.18;;;7.30;99.90;;;;;;5064867;28;19980;-62
2023/11/21 09:24:00;;;;;;;14.27;6.25;;;7.30;99.90;;;;;;5061773;28;20563;-63
2023/11/21 09:26:26;;;;;;;16.95;6.78;;;7.30;99.90;;;;;;5068191;28;20051;-62
2023/11/21 09:28:52;;;;;;;17.52;7.20;;;7.30;99.90;;;;;;5064795;28;20071;-63
2023/11/21 09:31:22;;;;;;;12.85;6.03;;;7.30;99.90;;;;;;5057766;28;20041;-63
2023/11/21 09:33:48;;;;;;;14.65;5.80;;;7.30;99.90;;;;;;5064233;28;20063;-61
2023/11/21 09:36:18;;;;;;;19.90;6.72;;;7.40;99.90;;;;;;5065639;28;20037;-63
2023/11/21 09:38:43;;;;;;;14.60;6.10;;;7.40;99.90;;;;;;5062492;28;20066;-62
2023/11/21 09:41:16;;;;;;;;;;;7.50;99.90;;;;;;5058253;28;20040;-63
2023/11/21 09:43:46;;;;;;;13.73;5.03;;;7.50;99.90;;;;;;5060968;28;19991;-63
2023/11/21 09:46:19;;;;;;;8.85;5.20;;;7.50;99.90;;;;;;5063502;28;20219;-63
2023/11/21 09:48:51;;;;;;;8.43;4.30;;;7.50;99.90;;;;;;5063843;28;20108;-63
2023/11/21 09:51:20;;;;;;;10.52;4.72;;;7.50;99.90;;;;;;5065896;28;20068;-62
2023/11/21 09:53:49;;;;;;;8.25;4.15;;;7.60;99.90;;;;;;5064319;28;20469;-61
2023/11/21 09:56:19;;;;;;;11.68;4.68;;;7.60;99.90;;;;;;5060790;28;20079;-62
2023/11/21 09:58:45;;;;;;;9.50;4.70;;;7.60;99.90;;;;;;5064155;28;20147;-61
2023/11/21 10:01:13;;;;;;;9.98;4.28;;;7.60;99.90;;;;;;5059179;28;20044;-61
2023/11/21 10:03:39;;;;;;;9.80;4.25;;;7.60;99.90;;;;;;5062442;28;20557;-61
2023/11/21 10:06:05;;;;;;;;;;;7.60;99.90;;;;;;5064274;28;20048;-61
2023/11/21 10:08:32;;;;;;;10.23;4.22;;;7.60;99.90;;;;;;5058409;28;19920;-62
2023/11/21 10:10:59;;;;;;;10.13;4.70;;;7.60;99.90;;;;;;5064870;28;20044;-62
2023/11/21 10:13:27;;;;;;;7.55;3.70;;;7.60;99.90;;;;;;5062559;28;20055;-62
2023/11/21 10:15:53;;;;;;;7.68;3.40;;;7.60;99.90;;;;;;5060689;28;20464;-62
2023/11/21 10:18:19;;;;;;;;;;;7.70;99.90;;;;;;5063743;28;20039;-65
2023/11/21 10:20:51;;;;;;;9.43;3.90;;;7.70;99.90;;;;;;5056121;28;20341;-61
2023/11/21 10:23:19;;;;;;;7.57;3.83;;;7.70;99.90;;;;;;5062316;28;20072;-59
2023/11/21 10:25:44;;;;;;;9.70;3.97;;;7.80;99.90;;;;;;5062050;28;20045;-61
2023/11/21 10:28:10;;;;;;;;;;;7.80;99.90;;;;;;5062079;28;20044;-62
2023/11/21 10:30:37;;;;;;;7.45;3.85;;;7.80;99.90;;;;;;5059377;28;20376;-62
2023/11/21 10:33:11;;;;;;;10.55;3.35;;;7.80;99.90;;;;;;5060559;28;20496;-63
2023/11/21 10:35:48;;;;;;;9.30;3.38;;;7.90;99.90;;;;;;5060662;28;20036;-62
2023/11/21 10:38:14;;;;;;;7.55;3.35;;;7.80;99.90;;;;;;5061248;28;20036;-63
2023/11/21 10:40:42;;;;;;;;;;;7.70;99.90;;;;;;5063740;28;20554;-62
2023/11/21 10:43:12;;;;;;;5.88;2.90;;;7.80;99.90;;;;;;5062214;28;19924;-61
2023/11/21 10:45:39;;;;;;;6.25;3.13;;;7.90;99.90;;;;;;5057091;28;20041;-62
2023/11/21 10:48:17;;;;;;;7.32;2.72;;;8.00;99.90;;;;;;5062121;28;20034;-61
2023/11/21 10:50:45;;;;;;;11.73;3.55;;;8.00;99.90;;;;;;5055189;28;20098;-60
2023/11/21 10:53:14;;;;;;;6.68;3.08;;;8.10;99.90;;;;;;5055105;28;20032;-63
2023/11/21 10:55:39;;;;;;;5.30;3.25;;;8.10;99.90;;;;;;5056091;28;20055;-63
2023/11/21 10:58:06;;;;;;;;;;;8.20;99.90;;;;;;5054963;28;20052;-62
2023/11/21 11:00:34;;;;;;;5.60;2.65;;;8.20;99.90;;;;;;5059325;28;19920;-63
2023/11/21 11:03:00;;;;;;;6.88;3.30;;;8.20;99.90;;;;;;5059145;28;20462;-62
2023/11/21 11:05:28;;;;;;;;;;;8.10;99.90;;;;;;5059447;28;20044;-61
2023/11/21 11:08:05;;;;;;;8.23;3.53;;;8.00;99.90;;;;;;5063735;28;20539;-62
2023/11/21 11:10:31;;;;;;;7.00;2.83;;;8.10;99.90;;;;;;5058235;28;20056;-61
2023/11/21 11:12:58;;;;;;;6.88;3.60;;;8.00;99.90;;;;;;5058477;28;20047;-62
2023/11/21 11:15:25;;;;;;;5.10;2.88;;;8.00;99.90;;;;;;5056212;28;20127;-58
2023/11/21 11:17:56;;;;;;;7.70;3.05;;;7.90;99.90;;;;;;5059900;28;20079;-62
2023/11/21 11:20:23;;;;;;;5.72;2.50;;;7.90;99.90;;;;;;5058618;28;20044;-62
2023/11/21 11:23:11;;;;;;;4.78;2.88;;;7.80;99.90;;;;;;5062143;28;20040;-61
2023/11/21 11:26:12;;;;;;;5.25;2.60;;;7.80;99.90;;;;;;5057422;28;20036;-61
2023/11/21 11:28:51;;;;;;;4.88;2.10;;;7.80;99.90;;;;;;5052660;28;20090;-60
2023/11/21 11:31:38;;;;;;;4.47;2.38;;;7.90;99.90;;;;;;5058930;28;20041;-62
2023/11/21 11:34:26;;;;;;;6.03;2.10;;;7.90;99.90;;;;;;5059754;28;20041;-62
2023/11/21 11:37:03;;;;;;;3.05;1.92;;;7.80;99.90;;;;;;5063406;28;20044;-61
2023/11/21 11:39:30;;;;;;;2.90;1.67;;;7.90;99.90;;;;;;5060117;28;20538;-62
2023/11/21 11:41:58;;;;;;;3.70;1.98;;;7.90;99.90;;;;;;5064809;28;20085;-62
2023/11/21 11:44:45;;;;;;;5.95;2.55;;;7.90;99.90;;;;;;5063324;28;20459;-61
2023/11/21 11:47:24;;;;;;;2.60;1.45;;;7.90;99.90;;;;;;5064643;28;20047;-60
2023/11/21 11:50:16;;;;;;;3.78;2.17;;;7.80;99.90;;;;;;5058780;28;20083;-62
2023/11/21 11:52:57;;;;;;;3.22;1.63;;;7.80;99.90;;;;;;5063813;28;20041;-61
2023/11/21 11:55:24;;;;;;;1.88;1.15;;;7.80;99.90;;;;;;5061372;28;20071;-62
2023/11/21 11:57:52;;;;;;;4.47;1.77;;;7.70;99.90;;;;;;5068507;28;20067;-60
2023/11/21 12:00:34;;;;;;;3.30;1.50;;;7.70;99.90;;;;;;5064970;28;20043;-62
2023/11/21 13:30:45;;;;;;;24.00;5.80;;;7.30;99.90;;;;;;5054845;28;20048;-61
2023/11/21 13:33:17;;;;;;;21.52;5.22;;;7.20;99.90;;;;;;5040257;28;20130;-63
2023/11/21 13:35:47;;;;;;;9.75;4.90;;;7.10;99.90;;;;;;5044182;28;20041;-62
2023/11/21 13:38:16;;;;;;;12.95;5.88;;;7.10;99.90;;;;;;5040056;28;20040;-60
2023/11/21 13:40:48;;;;;;;11.32;5.15;;;7.10;99.90;;;;;;5044177;28;20504;-61
2023/11/21 13:43:16;;;;;;;15.40;5.75;;;7.10;99.90;;;;;;5042129;28;20045;-62
2023/11/21 13:45:42;;;;;;;25.58;6.45;;;7.20;99.90;;;;;;5044310;28;20048;-56
2023/11/21 13:48:13;;;;;;;10.50;5.78;;;7.20;99.90;;;;;;5044427;28;20040;-61
2023/11/21 13:50:57;;;;;;;13.00;5.85;;;7.10;99.90;;;;;;5040954;28;20049;-60
2023/11/21 13:53:23;;;;;;;27.85;6.18;;;7.20;99.90;;;;;;5046625;28;20041;-57
2023/11/21 13:55:50;;;;;;;9.43;5.40;;;7.10;99.90;;;;;;5043426;28;20075;-62
2023/11/21 13:58:24;;;;;;;9.80;5.30;;;7.10;99.90;;;;;;5050182;28;20040;-59
2023/11/21 14:00:59;;;;;;;7.57;4.20;;;7.20;99.90;;;;;;5037562;28;20631;-61
2023/11/21 14:03:37;;;;;;;6.60;4.03;;;7.10;99.90;;;;;;5043264;28;20153;-60
2023/11/21 14:06:08;;;;;;;10.15;3.88;;;7.00;99.90;;;;;;5045020;28;20045;-62
2023/11/21 14:08:34;;;;;;;5.05;3.58;;;7.10;99.90;;;;;;5045454;28;20187;-62
2023/11/21 14:11:06;;;;;;;5.22;3.33;;;7.10;99.90;;;;;;5046990;28;20053;-64
2023/11/21 14:13:33;;;;;;;5.70;3.72;;;7.10;99.90;;;;;;5039109;28;20052;-63
2023/11/21 14:16:02;;;;;;;5.88;3.20;;;7.10;99.90;;;;;;5045653;28;20041;-60
2023/11/21 14:18:38;;;;;;;3.85;2.83;;;7.10;99.90;;;;;;5044236;28;20101;-62
2023/11/21 14:21:05;;;;;;;4.45;3.03;;;7.10;99.90;;;;;;5043858;28;20736;-62
2023/11/21 14:23:33;;;;;;;3.15;1.88;;;7.10;99.90;;;;;;5041395;28;20037;-61
2023/11/21 14:26:01;;;;;;;2.45;1.50;;;7.10;99.90;;;;;;5043857;28;20041;-62
2023/11/21 14:28:26;;;;;;;2.28;1.48;;;7.10;99.90;;;;;;5037662;28;20505;-61
2023/11/21 14:30:52;;;;;;;1.98;1.30;;;7.10;99.90;;;;;;5044239;28;20066;-64
2023/11/21 14:33:17;;;;;;;2.75;1.50;;;7.00;99.90;;;;;;5062403;28;20408;-62
2023/11/21 14:35:43;;;;;;;;;;;7.00;99.90;;;;;;5063447;28;20043;-59
2023/11/21 14:38:10;;;;;;;8.27;2.00;;;6.90;99.90;;;;;;5060725;28;19936;-63
2023/11/21 14:40:36;;;;;;;115.85;4.68;;;6.80;99.90;;;;;;5062490;28;20037;-60
2023/11/21 14:43:06;;;;;;;156.63;6.50;;;6.80;99.90;;;;;;5062774;28;20045;-61
2023/11/21 14:45:33;;;;;;;38.42;2.80;;;6.70;99.90;;;;;;5064615;28;20119;-61
2023/11/21 14:48:05;;;;;;;73.57;3.50;;;6.60;99.90;;;;;;5062380;28;20064;-58
2023/11/21 14:53:42;;;;;;;104.38;4.82;;;6.50;99.90;;;;;;5062638;28;20041;-61
2023/11/21 14:56:09;;;;;;;79.47;4.45;;;6.40;99.90;;;;;;5060550;28;20102;-61
2023/11/21 14:58:37;;;;;;;216.98;8.85;;;6.40;99.90;;;;;;5059156;28;20679;-65
2023/11/21 15:01:03;;;;;;;33.83;3.28;;;6.30;99.90;;;;;;5055867;28;20059;-62
2023/11/21 15:06:00;;;;;;;4.05;2.38;;;6.30;99.90;;;;;;5040315;28;20049;-61
2023/11/21 15:08:31;;;;;;;18.63;3.45;;;6.30;99.90;;;;;;5041327;28;20394;-57
2023/11/21 15:10:57;;;;;;;3.72;2.58;;;6.30;99.90;;;;;;5037039;28;20064;-62
2023/11/21 15:13:24;;;;;;;29.17;3.42;;;6.30;99.90;;;;;;5040503;28;20112;-61
2023/11/21 15:15:50;;;;;;;15.45;3.00;;;6.30;99.90;;;;;;5044245;28;20091;-62
2023/11/21 15:18:17;;;;;;;98.00;6.03;;;6.30;99.90;;;;;;5038551;28;20033;-62
2023/11/21 15:20:44;;;;;;;193.85;7.45;;;6.30;99.90;;;;;;5045017;28;20041;-59
2023/11/21 15:23:10;;;;;;;30.55;2.63;;;6.20;99.90;;;;;;5043465;28;20033;-61
2023/11/21 15:25:35;;;;;;;1.92;1.40;;;6.20;99.90;;;;;;5044595;28;20045;-62
2023/11/21 15:28:04;;;;;;;38.05;2.72;;;6.10;99.90;;;;;;5040806;28;20094;-62
2023/11/21 15:30:31;;;;;;;5.25;2.58;;;6.00;99.90;;;;;;5041237;28;20617;-62
2023/11/21 15:33:00;;;;;;;4.57;2.92;;;5.90;99.90;;;;;;5042461;28;20436;-62
2023/11/21 15:35:27;;;;;;;4.40;2.83;;;5.80;99.90;;;;;;5038471;28;20081;-58
2023/11/21 15:37:57;;;;;;;4.07;2.80;;;5.70;99.90;;;;;;5042547;28;20412;-59
2023/11/21 15:40:23;;;;;;;4.38;3.20;;;5.60;99.90;;;;;;5039220;28;20048;-61
2023/11/21 15:42:49;;;;;;;5.88;3.30;;;5.60;99.90;;;;;;5042201;28;20041;-55
2023/11/21 15:45:18;;;;;;;8.25;3.17;;;5.50;99.90;;;;;;5045982;28;20041;-60
2023/11/21 15:47:44;;;;;;;4.72;2.92;;;5.40;99.90;;;;;;5043325;28;20049;-61
2023/11/21 15:50:10;;;;;;;5.75;3.08;;;5.40;99.90;;;;;;5047494;28;20591;-61
2023/11/21 15:52:37;;;;;;;4.05;2.95;;;5.20;99.90;;;;;;5046747;28;20044;-62
2023/11/21 15:55:03;;;;;;;5.78;3.10;;;5.30;99.90;;;;;;5049427;28;20045;-61
2023/11/21 15:57:28;;;;;;;6.45;4.00;;;5.30;99.90;;;;;;5048993;28;20045;-61
2023/11/21 15:59:54;;;;;;;6.88;4.38;;;5.20;99.90;;;;;;5044522;28;20037;-61
2023/11/21 16:02:20;;;;;;;6.20;3.85;;;5.20;99.90;;;;;;5044857;28;20044;-60
2023/11/21 16:04:46;;;;;;;8.75;5.05;;;5.10;99.90;;;;;;5048623;28;20644;-58
2023/11/21 16:07:12;;;;;;;7.13;4.68;;;5.00;99.90;;;;;;5045185;28;20120;-61
2023/11/21 16:09:39;;;;;;;8.02;5.25;;;4.90;99.90;;;;;;5045209;28;20116;-61
2023/11/21 16:12:06;;;;;;;8.25;5.20;;;4.90;99.90;;;;;;5041247;28;20570;-62
2023/11/21 16:14:35;;;;;;;11.55;5.78;;;4.90;99.90;;;;;;5043685;28;20519;-62
2023/11/21 16:17:02;;;;;;;10.95;6.00;;;5.00;99.90;;;;;;5041191;28;20144;-61
2023/11/21 16:19:27;;;;;;;15.00;6.47;;;4.90;99.90;;;;;;5049820;28;20174;-60
2023/11/21 16:21:53;;;;;;;20.27;6.35;;;4.90;99.90;;;;;;5047309;28;20157;-62
2023/11/21 16:24:19;;;;;;;15.45;6.70;;;4.90;99.90;;;;;;5041232;28;20059;-60
2023/11/21 16:26:45;;;;;;;10.13;5.93;;;4.90;99.90;;;;;;5046402;28;20881;-60
2023/11/21 16:29:12;;;;;;;9.85;6.63;;;4.90;99.90;;;;;;5046287;28;20086;-61
2023/11/21 16:31:41;;;;;;;13.52;6.80;;;5.00;99.90;;;;;;5042838;28;20033;-60
2023/11/21 16:34:17;;;;;;;9.52;6.05;;;4.90;99.90;;;;;;5046140;28;20045;-62
2023/11/21 16:36:45;;;;;;;10.90;6.25;;;4.90;99.90;;;;;;5043305;28;20064;-62
2023/11/21 16:39:12;;;;;;;11.23;6.75;;;5.00;99.90;;;;;;5036060;28;20080;-60
2023/11/21 16:41:41;;;;;;;13.52;7.32;;;4.90;99.90;;;;;;5042666;28;20045;-57
2023/11/21 16:44:14;;;;;;;21.27;9.70;;;4.90;99.90;;;;;;5041039;28;20124;-61
2023/11/21 16:46:45;;;;;;;13.57;7.93;;;4.80;99.90;;;;;;5042870;28;20106;-59
2023/11/21 16:49:11;;;;;;;18.13;8.57;;;4.80;99.90;;;;;;5039515;28;20067;-60